createdAt,value
2022-09-14T00:01:28.892Z,48.66
2022-09-14T00:04:10.643Z,43.19
2022-09-14T00:07:04.685Z,43.36
2022-09-14T00:09:50.956Z,42.16
2022-09-14T00:12:36.834Z,45.12
2022-09-14T00:15:24.545Z,39.65
2022-09-14T00:18:03.071Z,40.24
2022-09-14T00:20:41.935Z,41.18
2022-09-14T00:23:27.120Z,39.64
2022-09-14T00:26:21.384Z,39.66
2022-09-14T00:29:08.985Z,39.61
2022-09-14T00:32:19.347Z,38.00
2022-09-14T00:34:59.480Z,37.98
2022-09-14T00:37:36.264Z,38.68
2022-09-14T00:40:19.067Z,38.48
2022-09-14T00:43:08.295Z,38.30
2022-09-14T00:45:48.703Z,39.51
2022-09-14T00:48:33.237Z,38.85
2022-09-14T00:51:10.154Z,38.39
2022-09-14T00:54:01.351Z,38.21
2022-09-14T00:56:36.442Z,37.24
2022-09-14T00:59:22.842Z,37.33
2022-09-14T01:02:16.094Z,37.47
2022-09-14T01:05:11.324Z,39.17
2022-09-14T01:08:19.918Z,38.47
2022-09-14T01:11:09.399Z,37.13
2022-09-14T01:14:04.555Z,34.60
2022-09-14T01:16:57.972Z,35.38
2022-09-14T01:19:57.374Z,33.42
2022-09-14T01:22:45.724Z,32.39
2022-09-14T01:28:54.185Z,32.83
2022-09-14T01:31:58.785Z,32.34
2022-09-14T01:35:03.311Z,32.99
2022-09-14T01:38:06.853Z,33.98
2022-09-14T01:44:23.158Z,32.89
2022-09-14T01:47:24.575Z,33.14
2022-09-14T01:50:23.085Z,32.74
2022-09-14T01:53:02.153Z,32.89
2022-09-14T01:56:04.638Z,32.18
2022-09-14T01:58:59.640Z,31.94
2022-09-14T02:01:50.182Z,31.03
2022-09-14T02:04:49.271Z,29.16
2022-09-14T02:07:27.059Z,31.32
2022-09-14T02:10:16.947Z,30.65
2022-09-14T02:13:04.368Z,29.50
2022-09-14T02:21:43.210Z,31.51
2022-09-14T02:24:46.437Z,30.21
2022-09-14T02:27:29.413Z,30.37
2022-09-14T02:30:23.245Z,27.65
2022-09-14T02:33:14.146Z,29.30
2022-09-14T02:36:02.167Z,29.06
2022-09-14T02:38:48.143Z,29.99
2022-09-14T02:41:38.588Z,30.42
2022-09-14T02:44:45.251Z,28.76
2022-09-14T02:47:59.493Z,27.97
2022-09-14T02:50:42.603Z,31.02
2022-09-14T02:53:47.555Z,27.70
2022-09-14T02:56:39.764Z,27.31
2022-09-14T02:59:27.399Z,28.31
2022-09-14T03:02:05.602Z,25.77
2022-09-14T03:04:51.948Z,27.55
2022-09-14T03:10:28.647Z,26.50
2022-09-14T03:13:17.575Z,25.73
2022-09-14T03:15:58.923Z,27.68
2022-09-14T03:18:39.436Z,26.12
2022-09-14T03:21:33.466Z,26.54
2022-09-14T03:24:11.838Z,25.42
2022-09-14T03:27:03.700Z,27.27
2022-09-14T03:29:41.721Z,23.83
2022-09-14T03:32:19.263Z,24.43
2022-09-14T03:35:01.042Z,24.42
2022-09-14T03:37:41.037Z,26.25
2022-09-14T03:40:31.820Z,26.38
2022-09-14T03:43:16.275Z,23.61
2022-09-14T03:46:01.679Z,24.70
2022-09-14T03:48:42.756Z,25.92
2022-09-14T03:51:26.690Z,24.13
2022-09-14T03:54:12.944Z,23.06
2022-09-14T03:56:51.408Z,23.55
2022-09-14T03:59:40.519Z,24.10
2022-09-14T04:02:18.998Z,24.54
2022-09-14T04:05:03.621Z,24.49
2022-09-14T04:07:41.672Z,23.19
2022-09-14T04:10:34.527Z,23.49
2022-09-14T04:16:18.083Z,23.66
2022-09-14T04:19:02.727Z,24.77
2022-09-14T04:24:47.386Z,20.91
2022-09-14T04:27:24.220Z,24.21
2022-09-14T04:30:08.262Z,24.24
2022-09-14T04:32:54.805Z,23.91
2022-09-14T04:35:32.952Z,24.13
2022-09-14T04:38:12.081Z,22.45
2022-09-14T04:40:50.183Z,23.07
2022-09-14T04:44:00.676Z,24.13
2022-09-14T04:46:42.131Z,23.69
2022-09-14T04:49:25.794Z,25.06
2022-09-14T04:52:06.253Z,23.19
2022-09-14T04:54:41.968Z,23.02
2022-09-14T04:57:36.672Z,23.08
2022-09-14T05:00:23.271Z,20.96
2022-09-14T05:03:22.725Z,19.51
2022-09-14T05:06:30.553Z,21.26
2022-09-14T05:09:06.704Z,20.18
2022-09-14T05:11:47.952Z,21.03
2022-09-14T05:14:32.249Z,22.41
2022-09-14T05:17:06.731Z,23.91
2022-09-14T05:19:46.893Z,24.27
2022-09-14T05:22:49.562Z,21.55
2022-09-14T05:25:31.794Z,23.06
2022-09-14T05:28:26.102Z,22.50
2022-09-14T05:31:05.523Z,21.66
2022-09-14T05:33:51.286Z,22.24
2022-09-14T05:36:31.516Z,22.19
2022-09-14T05:39:28.816Z,21.81
2022-09-14T05:42:09.699Z,23.43
2022-09-14T05:44:52.984Z,23.01
2022-09-14T05:47:59.948Z,22.76
2022-09-14T05:50:42.267Z,21.82
2022-09-14T05:53:19.841Z,22.82
2022-09-14T05:56:23.868Z,23.16
2022-09-14T05:59:25.426Z,24.81
2022-09-14T06:02:27.366Z,27.61
2022-09-14T06:05:15.521Z,24.51
2022-09-14T06:08:02.427Z,24.15
2022-09-14T06:11:00.089Z,27.80
2022-09-14T06:13:50.009Z,26.08
2022-09-14T06:16:29.445Z,30.42
2022-09-14T06:22:02.060Z,28.64
2022-09-14T06:24:39.676Z,26.77
2022-09-14T06:27:22.855Z,27.21
2022-09-14T06:30:03.962Z,26.09
2022-09-14T06:32:42.261Z,30.22
2022-09-14T06:35:19.438Z,29.75
2022-09-14T06:37:59.872Z,29.50
2022-09-14T06:40:44.750Z,30.02
2022-09-14T06:43:22.856Z,29.16
2022-09-14T06:46:29.227Z,31.10
2022-09-14T06:49:08.840Z,32.03
2022-09-14T06:51:56.293Z,31.81
2022-09-14T07:00:20.756Z,32.77
2022-09-14T07:03:15.017Z,34.06
2022-09-14T07:06:07.623Z,33.47
2022-09-14T07:08:47.517Z,33.14
2022-09-14T07:11:42.480Z,34.14
2022-09-14T07:14:32.198Z,34.62
2022-09-14T07:17:29.968Z,34.33
2022-09-14T07:20:10.503Z,34.92
2022-09-14T07:22:53.584Z,35.63
2022-09-14T07:25:33.485Z,36.13
2022-09-14T07:28:15.621Z,37.34
2022-09-14T07:30:59.109Z,37.52
2022-09-14T07:33:37.542Z,37.76
2022-09-14T07:36:15.867Z,39.44
2022-09-14T07:38:53.805Z,39.74
2022-09-14T07:41:33.071Z,39.49
2022-09-14T07:44:21.558Z,39.48
2022-09-14T07:47:04.103Z,41.05
2022-09-14T07:49:39.853Z,41.36
2022-09-14T07:52:35.565Z,41.85
2022-09-14T07:55:15.428Z,42.93
2022-09-14T07:57:56.453Z,42.25
2022-09-14T08:00:38.051Z,43.50
2022-09-14T08:03:23.537Z,44.69
2022-09-14T08:06:12.281Z,44.81
2022-09-14T08:09:03.211Z,45.55
2022-09-14T08:11:52.165Z,47.16
2022-09-14T08:14:32.495Z,47.25
2022-09-14T08:17:13.174Z,47.88
2022-09-14T08:19:57.729Z,49.74
2022-09-14T08:22:36.661Z,52.60
2022-09-14T08:25:27.982Z,54.58
2022-09-14T08:28:12.837Z,54.58
2022-09-14T08:31:01.310Z,52.06
2022-09-14T08:33:52.342Z,50.16
2022-09-14T08:36:58.323Z,48.75
2022-09-14T08:39:35.105Z,49.51
2022-09-14T08:45:27.391Z,49.95
2022-09-14T08:48:22.569Z,50.70
2022-09-14T08:51:21.202Z,50.74
2022-09-14T08:54:09.935Z,51.58
2022-09-14T08:56:58.415Z,52.71
2022-09-14T09:03:07.617Z,54.69
2022-09-14T09:06:15.924Z,55.26
2022-09-14T09:09:03.605Z,55.71
2022-09-14T09:11:58.286Z,56.20
2022-09-14T09:14:59.565Z,56.44
2022-09-14T09:17:52.522Z,56.32
2022-09-14T09:20:47.420Z,55.68
2022-09-14T09:23:41.558Z,54.55
2022-09-14T09:26:36.115Z,53.74
2022-09-14T09:29:37.543Z,53.29
2022-09-14T09:32:23.658Z,51.61
2022-09-14T09:35:13.698Z,50.67
2022-09-14T09:38:06.688Z,50.02
2022-09-14T09:40:54.853Z,50.18
2022-09-14T09:46:20.912Z,49.87
2022-09-14T09:49:00.316Z,50.19
2022-09-14T09:51:49.986Z,50.15
2022-09-14T09:54:53.746Z,50.64
2022-09-14T09:57:51.434Z,51.73
2022-09-14T10:00:45.953Z,52.57
2022-09-14T10:03:36.934Z,52.74
2022-09-14T10:06:18.002Z,54.13
2022-09-14T10:09:00.068Z,55.61
2022-09-14T10:11:42.673Z,57.85
2022-09-14T10:14:49.117Z,60.42
2022-09-14T10:17:38.596Z,62.59
2022-09-14T10:20:38.632Z,64.07
2022-09-14T10:24:18.266Z,65.44
2022-09-14T10:27:04.023Z,65.88
2022-09-14T10:29:51.098Z,66.69
2022-09-14T10:32:42.931Z,66.96
2022-09-14T10:35:23.923Z,67.70
2022-09-14T10:38:19.871Z,68.10
2022-09-14T10:41:37.497Z,69.24
2022-09-14T10:44:57.686Z,70.43
2022-09-14T10:48:17.624Z,70.97
2022-09-14T10:51:05.358Z,71.68
2022-09-14T10:54:00.038Z,72.11
2022-09-14T10:57:03.929Z,71.45
2022-09-14T10:59:56.310Z,71.19
2022-09-14T11:03:16.962Z,71.67
2022-09-14T11:06:10.940Z,72.21
2022-09-14T11:08:57.350Z,72.63
2022-09-14T11:11:51.044Z,74.03
2022-09-14T11:14:54.624Z,74.81
2022-09-14T11:17:58.256Z,75.27
2022-09-14T11:20:49.730Z,75.47
2022-09-14T11:23:55.219Z,76.06
2022-09-14T11:26:49.141Z,76.53
2022-09-14T11:29:58.068Z,77.66
2022-09-14T11:33:11.557Z,78.17
2022-09-14T11:36:15.309Z,78.79
2022-09-14T11:39:07.013Z,78.90
2022-09-14T11:42:31.870Z,78.91
2022-09-14T11:45:16.150Z,79.59
2022-09-14T11:48:02.798Z,80.40
2022-09-14T11:50:42.770Z,80.47
2022-09-14T11:53:28.067Z,80.35
2022-09-14T11:56:11.067Z,80.27
2022-09-14T11:59:08.466Z,80.58
2022-09-14T12:01:55.404Z,80.49
2022-09-14T12:04:34.469Z,80.62
2022-09-14T12:07:31.000Z,80.90
2022-09-14T12:10:34.532Z,80.76
2022-09-14T12:13:33.748Z,81.12
2022-09-14T12:16:14.416Z,81.12
2022-09-14T12:22:51.364Z,81.06
2022-09-14T12:25:25.369Z,81.44
2022-09-14T12:28:13.061Z,81.76
2022-09-14T12:34:48.746Z,82.47
2022-09-14T12:37:53.136Z,82.51
2022-09-14T12:41:01.153Z,82.17
2022-09-14T12:44:11.794Z,81.77
2022-09-14T12:46:59.003Z,81.24
2022-09-14T12:53:06.504Z,81.04
2022-09-14T12:56:08.169Z,81.48
2022-09-14T12:59:04.647Z,81.46
2022-09-14T13:05:33.889Z,82.30
2022-09-14T13:08:40.729Z,83.09
2022-09-14T13:11:34.987Z,83.45
2022-09-14T13:14:08.873Z,83.38
2022-09-14T13:17:28.971Z,83.21
2022-09-14T13:20:09.431Z,83.90
2022-09-14T13:22:58.957Z,84.87
2022-09-14T13:32:03.073Z,84.66
2022-09-14T13:34:46.650Z,84.37
2022-09-14T13:37:31.332Z,84.38
2022-09-14T13:42:59.931Z,84.64
2022-09-14T13:45:55.724Z,84.42
2022-09-14T13:48:35.561Z,84.28
2022-09-14T13:51:27.258Z,84.49
2022-09-14T13:54:09.209Z,84.35
2022-09-14T13:56:44.634Z,84.83
2022-09-14T13:59:38.468Z,84.14
2022-09-14T14:02:24.854Z,84.18
2022-09-14T14:08:10.554Z,84.01
2022-09-14T14:10:54.010Z,84.21
2022-09-14T14:13:48.016Z,85.00
2022-09-14T14:16:41.697Z,85.10
2022-09-14T14:19:53.606Z,85.15
2022-09-14T14:22:48.824Z,84.82
2022-09-14T14:25:35.207Z,84.93
2022-09-14T14:28:15.148Z,85.22
2022-09-14T14:31:08.551Z,84.55
2022-09-14T14:33:56.221Z,84.28
2022-09-14T14:36:45.845Z,84.32
2022-09-14T14:39:49.540Z,84.07
2022-09-14T14:42:41.198Z,84.02
2022-09-14T14:45:36.234Z,83.79
2022-09-14T14:48:21.013Z,83.59
2022-09-14T14:50:57.548Z,82.29
2022-09-14T14:53:44.015Z,81.29
2022-09-14T14:56:23.004Z,80.39
2022-09-14T15:01:58.957Z,78.42
2022-09-14T15:04:44.652Z,77.64
2022-09-14T15:07:37.586Z,77.24
2022-09-14T15:10:34.831Z,77.17
2022-09-14T15:13:19.904Z,77.39
2022-09-14T15:16:02.287Z,77.62
2022-09-14T15:18:49.929Z,77.25
2022-09-14T15:21:51.725Z,76.23
2022-09-14T15:24:51.274Z,76.83
2022-09-14T15:27:35.553Z,77.27
2022-09-14T15:30:21.953Z,78.01
2022-09-14T15:36:11.948Z,78.91
2022-09-14T15:39:04.099Z,78.57
2022-09-14T15:41:42.318Z,78.18
2022-09-14T15:44:29.136Z,77.50
2022-09-14T15:47:15.194Z,77.89
2022-09-14T15:49:53.865Z,77.95
2022-09-14T15:55:51.312Z,77.81
2022-09-14T15:58:33.375Z,77.88
2022-09-14T16:01:23.050Z,77.97
2022-09-14T16:04:14.686Z,78.94
2022-09-14T16:09:53.427Z,78.25
2022-09-14T16:12:35.917Z,78.48
2022-09-14T16:15:15.662Z,78.37
2022-09-14T16:18:05.928Z,79.00
2022-09-14T16:20:47.515Z,78.72
2022-09-14T16:23:25.747Z,78.76
2022-09-14T16:26:12.748Z,79.07
2022-09-14T16:29:02.201Z,79.24
2022-09-14T16:31:44.125Z,79.57
2022-09-14T16:34:39.942Z,79.98
2022-09-14T16:37:22.940Z,79.28
2022-09-14T16:40:05.104Z,79.26
2022-09-14T16:42:52.631Z,79.65
2022-09-14T16:45:29.944Z,79.13
2022-09-14T16:48:20.950Z,79.51
2022-09-14T16:51:10.275Z,79.31
2022-09-14T16:53:49.172Z,79.69
2022-09-14T16:56:35.755Z,79.60
2022-09-14T16:59:23.486Z,79.34
2022-09-14T17:02:26.033Z,78.73
2022-09-14T17:05:07.775Z,79.71
2022-09-14T17:08:06.367Z,80.20
2022-09-14T17:10:57.145Z,80.69
2022-09-14T17:13:39.890Z,81.04
2022-09-14T17:16:43.581Z,81.34
2022-09-14T17:19:30.876Z,81.98
2022-09-14T17:22:32.903Z,81.32
2022-09-14T17:25:44.836Z,81.17
2022-09-14T17:28:24.682Z,81.46
2022-09-14T17:31:02.860Z,81.62
2022-09-14T17:33:45.113Z,82.12
2022-09-14T17:36:23.664Z,82.13
2022-09-14T17:39:22.239Z,82.23
2022-09-14T17:42:05.884Z,82.56
2022-09-14T17:44:50.955Z,82.55
2022-09-14T17:47:29.751Z,82.63
2022-09-14T17:50:14.856Z,82.27
2022-09-14T17:52:49.102Z,83.09
2022-09-14T17:55:29.250Z,83.38
2022-09-14T17:58:32.800Z,83.57
2022-09-14T18:01:29.421Z,83.90
2022-09-14T18:04:09.431Z,84.27
2022-09-14T18:12:59.141Z,84.66
2022-09-14T18:16:01.872Z,84.83
2022-09-14T18:18:42.539Z,85.03
2022-09-14T18:21:27.658Z,85.19
2022-09-14T18:26:59.501Z,85.31
2022-09-14T18:29:44.070Z,85.57
2022-09-14T18:32:42.977Z,85.64
2022-09-14T18:35:27.635Z,85.77
2022-09-14T18:38:06.584Z,85.64
2022-09-14T18:40:43.181Z,85.47
2022-09-14T18:43:38.415Z,85.22
2022-09-14T18:46:17.571Z,85.52
2022-09-14T18:52:12.472Z,86.09
2022-09-14T18:54:50.239Z,86.86
2022-09-14T18:57:39.929Z,86.85
2022-09-14T19:00:28.791Z,86.79
2022-09-14T19:03:10.932Z,86.76
2022-09-14T19:05:56.881Z,86.42
2022-09-14T19:08:41.540Z,86.49
2022-09-14T19:11:25.248Z,86.63
2022-09-14T19:14:30.371Z,87.01
2022-09-14T19:17:20.441Z,86.92
2022-09-14T19:20:03.701Z,86.73
2022-09-14T19:22:54.530Z,87.36
2022-09-14T19:26:01.475Z,87.59
2022-09-14T19:28:44.192Z,87.54
2022-09-14T19:31:27.851Z,87.40
2022-09-14T19:34:23.336Z,87.13
2022-09-14T19:37:02.854Z,87.31
2022-09-14T19:39:55.685Z,87.11
2022-09-14T19:42:38.790Z,87.29
2022-09-14T19:45:31.240Z,87.22
2022-09-14T19:48:10.878Z,87.17
2022-09-14T19:50:50.731Z,87.33
2022-09-14T19:53:55.847Z,87.45
2022-09-14T19:56:50.957Z,87.73
2022-09-14T19:59:41.968Z,87.81
2022-09-14T20:02:17.284Z,87.70
2022-09-14T20:04:58.408Z,88.23
2022-09-14T20:07:37.775Z,88.48
2022-09-14T20:10:14.249Z,88.75
2022-09-14T20:12:56.814Z,89.82
2022-09-14T20:15:42.510Z,90.04
2022-09-14T20:18:31.080Z,89.32
2022-09-14T20:21:11.569Z,89.39
2022-09-14T20:24:14.750Z,89.65
2022-09-14T20:26:52.891Z,89.97
2022-09-14T20:29:47.378Z,90.26
2022-09-14T20:32:45.022Z,90.39
2022-09-14T20:35:27.523Z,90.26
2022-09-14T20:38:02.960Z,90.60
2022-09-14T20:40:40.075Z,91.01
2022-09-14T20:43:26.501Z,91.51
2022-09-14T20:46:21.046Z,92.07
2022-09-14T20:48:59.556Z,92.33
2022-09-14T20:55:14.239Z,92.02
2022-09-14T20:57:52.715Z,91.16
2022-09-14T21:00:39.146Z,90.64
2022-09-14T21:03:49.106Z,89.96
2022-09-14T21:06:31.363Z,89.47
2022-09-14T21:09:16.239Z,88.75
2022-09-14T21:12:15.629Z,88.05
2022-09-14T21:20:45.253Z,86.46
2022-09-14T21:23:23.635Z,86.18
2022-09-14T21:26:12.834Z,84.92
2022-09-14T21:28:57.980Z,84.31
2022-09-14T21:31:35.847Z,83.74
2022-09-14T21:34:28.909Z,82.76
2022-09-14T21:37:10.990Z,82.21
2022-09-14T21:39:54.526Z,81.83
2022-09-14T21:42:31.150Z,81.06
2022-09-14T21:45:18.198Z,80.26
2022-09-14T21:48:00.720Z,79.50
2022-09-14T21:51:07.328Z,79.06
2022-09-14T21:54:04.086Z,77.97
2022-09-14T21:57:05.908Z,76.89
2022-09-14T21:59:39.828Z,76.23
2022-09-14T22:02:21.322Z,76.45
2022-09-14T22:05:07.357Z,76.16
2022-09-14T22:07:57.991Z,75.94
2022-09-14T22:11:04.211Z,75.89
2022-09-14T22:13:43.594Z,75.90
2022-09-14T22:16:33.045Z,75.30
2022-09-14T22:19:32.285Z,74.45
2022-09-14T22:22:12.606Z,74.53
2022-09-14T22:24:49.191Z,74.46
2022-09-14T22:27:42.613Z,73.82
2022-09-14T22:33:21.313Z,72.81
2022-09-14T22:36:18.881Z,72.55
2022-09-14T22:39:11.312Z,73.66
2022-09-14T22:42:00.674Z,73.77
2022-09-14T22:45:00.808Z,73.13
2022-09-14T22:47:47.485Z,72.23
2022-09-14T22:50:28.135Z,71.22
2022-09-14T22:53:06.699Z,70.97
2022-09-14T22:55:46.155Z,69.80
2022-09-14T22:58:34.635Z,69.71
2022-09-14T23:01:33.756Z,69.75
2022-09-14T23:04:20.680Z,69.42
2022-09-14T23:07:07.100Z,69.44
2022-09-14T23:09:52.641Z,70.06
2022-09-14T23:12:40.181Z,69.94
2022-09-14T23:15:24.908Z,69.51
2022-09-14T23:18:07.503Z,69.93
2022-09-14T23:20:51.237Z,69.49
2022-09-14T23:23:28.869Z,67.77
2022-09-14T23:26:22.144Z,66.08
2022-09-14T23:29:03.446Z,66.02
2022-09-14T23:31:55.407Z,65.73
2022-09-14T23:34:42.497Z,65.19
2022-09-14T23:37:27.644Z,65.02
2022-09-14T23:40:14.109Z,64.23
2022-09-14T23:42:53.334Z,63.58
2022-09-14T23:45:32.782Z,63.63
2022-09-14T23:48:17.401Z,62.99
2022-09-14T23:51:21.207Z,62.02
2022-09-14T23:54:05.849Z,61.56
2022-09-14T23:56:45.464Z,61.22
2022-09-14T23:59:30.991Z,60.94
